createdAt,value
2019-04-07T00:00:44.019Z,97279.53
2019-04-07T00:05:49.509Z,97282.19
2019-04-07T00:10:55.072Z,97278.94
2019-04-07T00:16:02.492Z,97278.13
2019-04-07T00:21:08.622Z,97276.67
2019-04-07T00:26:14.367Z,97280.95
2019-04-07T00:31:20.465Z,97281.38
2019-04-07T00:36:26.645Z,97273.75
2019-04-07T00:41:32.131Z,97276.92
2019-04-07T00:46:37.665Z,97275.03
2019-04-07T00:51:43.944Z,97281.41
2019-04-07T00:56:49.248Z,97278.36
2019-04-07T01:01:55.274Z,97282.39
2019-04-07T01:07:00.868Z,97270.93
2019-04-07T01:12:07.217Z,97289.64
2019-04-07T01:17:13.836Z,97287.57
2019-04-07T01:22:19.755Z,97282.34
2019-04-07T01:27:27.023Z,97285.20
2019-04-07T01:32:32.377Z,97288.20
2019-04-07T01:37:38.054Z,97297.34
2019-04-07T01:43:11.715Z,97292.45
2019-04-07T01:48:39.659Z,97296.38
2019-04-07T01:53:52.193Z,97296.94
2019-04-07T01:59:22.096Z,97300.30
2019-04-07T02:05:01.724Z,97300.06
2019-04-07T02:10:24.014Z,97298.62
2019-04-07T02:15:37.285Z,97295.69
2019-04-07T02:21:05.394Z,97300.80
2019-04-07T02:26:16.612Z,97297.23
2019-04-07T02:31:40.971Z,97297.02
2019-04-07T02:37:08.171Z,97303.27
2019-04-07T02:42:42.810Z,97308.69
2019-04-07T02:48:16.501Z,97312.54
2019-04-07T02:53:34.888Z,97309.66
2019-04-07T02:58:59.388Z,97304.84
2019-04-07T03:04:18.930Z,97305.13
2019-04-07T03:09:48.221Z,97312.58
2019-04-07T03:15:27.708Z,97313.69
2019-04-07T03:21:02.418Z,97319.59
2019-04-07T03:26:29.685Z,97314.42
2019-04-07T03:32:00.507Z,97324.08
2019-04-07T03:37:34.441Z,97326.23
2019-04-07T03:42:51.160Z,97329.45
2019-04-07T03:48:10.461Z,97330.20
2019-04-07T03:53:32.364Z,97323.50
2019-04-07T03:58:59.937Z,97320.70
2019-04-07T04:04:15.786Z,97329.19
2019-04-07T04:09:28.418Z,97325.02
2019-04-07T04:14:40.345Z,97325.45
2019-04-07T04:19:46.759Z,97320.34
2019-04-07T04:24:53.431Z,97323.69
2019-04-07T04:29:58.815Z,97326.02
2019-04-07T04:35:04.589Z,97326.76
2019-04-07T04:40:13.839Z,97330.95
2019-04-07T04:45:19.711Z,97327.63
2019-04-07T04:50:28.317Z,97330.01
2019-04-07T04:59:52.717Z,97332.17
2019-04-07T05:04:58.119Z,97335.28
2019-04-07T05:10:03.360Z,97341.29
2019-04-07T05:15:09.644Z,97346.50
2019-04-07T05:20:15.230Z,97350.02
2019-04-07T05:25:20.690Z,97349.60
2019-04-07T05:30:26.213Z,97345.70
2019-04-07T05:35:31.533Z,97349.06
2019-04-07T05:40:36.875Z,97346.11
2019-04-07T05:45:42.182Z,97339.31
2019-04-07T05:50:48.723Z,97352.85
2019-04-07T05:55:55.383Z,97355.47
2019-04-07T06:01:01.840Z,97357.36
2019-04-07T06:06:07.040Z,97364.70
2019-04-07T06:11:13.598Z,97367.88
2019-04-07T06:16:20.950Z,97365.09
2019-04-07T06:21:26.218Z,97361.89
2019-04-07T06:26:31.462Z,97365.38
2019-04-07T06:31:36.822Z,97364.92
2019-04-07T06:36:43.123Z,97368.59
2019-04-07T06:41:48.904Z,97370.34
2019-04-07T06:47:12.785Z,97377.84
2019-04-07T06:52:27.098Z,97374.33
2019-04-07T06:57:46.600Z,97372.83
2019-04-07T07:03:02.340Z,97380.31
2019-04-07T07:08:15.044Z,97376.81
2019-04-07T07:13:44.701Z,97373.73
2019-04-07T07:19:10.681Z,97381.33
2019-04-07T07:24:22.491Z,97378.89
2019-04-07T07:29:26.532Z,97371.95
2019-04-07T07:34:31.644Z,97374.80
2019-04-07T07:39:41.840Z,97375.02
2019-04-07T07:44:44.742Z,97378.36
2019-04-07T07:49:50.832Z,97382.38
2019-04-07T07:54:59.782Z,97380.50
2019-04-07T08:00:06.112Z,97381.97
2019-04-07T08:05:11.433Z,97380.69
2019-04-07T08:10:17.158Z,97391.97
2019-04-07T08:15:25.474Z,97390.06
2019-04-07T08:20:29.692Z,97396.40
2019-04-07T08:25:35.744Z,97395.91
2019-04-07T08:30:46.497Z,97396.77
2019-04-07T08:35:51.211Z,97404.72
2019-04-07T08:40:57.604Z,97394.30
2019-04-07T08:46:04.779Z,97398.92
2019-04-07T08:51:11.272Z,97396.55
2019-04-07T08:56:17.824Z,97402.36
2019-04-07T09:01:23.820Z,97399.42
2019-04-07T09:06:29.616Z,97401.44
2019-04-07T09:11:39.046Z,97396.64
2019-04-07T09:17:01.441Z,97400.19
2019-04-07T09:22:31.592Z,97408.48
2019-04-07T09:27:59.183Z,97407.00
2019-04-07T09:33:24.230Z,97411.22
2019-04-07T09:38:42.166Z,97405.70
2019-04-07T09:44:06.545Z,97398.79
2019-04-07T09:49:31.003Z,97408.03
2019-04-07T09:54:51.818Z,97408.61
2019-04-07T10:00:12.716Z,97410.92
2019-04-07T10:05:27.146Z,97407.36
2019-04-07T10:10:55.978Z,97418.73
2019-04-07T10:16:33.869Z,97418.59
2019-04-07T10:22:04.366Z,97417.69
2019-04-07T10:27:18.921Z,97420.39
2019-04-07T10:32:44.868Z,97422.29
2019-04-07T10:38:07.550Z,97419.15
2019-04-07T10:43:35.004Z,97421.52
2019-04-07T10:49:00.237Z,97417.95
2019-04-07T10:54:25.083Z,97423.91
2019-04-07T10:59:51.248Z,97422.02
2019-04-07T11:05:34.480Z,97423.58
2019-04-07T11:11:12.282Z,97415.32
2019-04-07T11:16:31.789Z,97411.28
2019-04-07T11:21:56.645Z,97406.53
2019-04-07T11:27:35.358Z,97410.66
2019-04-07T11:32:48.125Z,97404.78
2019-04-07T11:38:11.576Z,97404.67
2019-04-07T11:43:54.829Z,97406.59
2019-04-07T11:49:13.553Z,97405.48
2019-04-07T11:54:40.480Z,97399.38
2019-04-07T12:00:18.338Z,97403.23
2019-04-07T12:05:33.629Z,97402.87
2019-04-07T12:11:02.288Z,97398.94
2019-04-07T12:16:22.055Z,97396.78
2019-04-07T12:21:38.098Z,97388.43
2019-04-07T12:26:53.804Z,97393.05
2019-04-07T12:32:17.135Z,97390.62
2019-04-07T12:37:50.616Z,97389.92
2019-04-07T12:43:27.255Z,97394.66
2019-04-07T12:48:59.888Z,97381.84
2019-04-07T12:54:27.749Z,97374.39
2019-04-07T12:59:52.770Z,97379.07
2019-04-07T13:05:09.055Z,97376.56
2019-04-07T13:10:25.437Z,97370.17
2019-04-07T13:16:09.141Z,97376.25
2019-04-07T13:21:34.297Z,97366.45
2019-04-07T13:27:06.220Z,97361.42
2019-04-07T13:32:41.544Z,97370.85
2019-04-07T13:38:18.618Z,97365.29
2019-04-07T13:43:47.348Z,97365.02
2019-04-07T13:49:11.818Z,97372.06
2019-04-07T13:54:34.981Z,97373.80
2019-04-07T14:00:02.350Z,97371.39
2019-04-07T14:05:27.385Z,97364.23
2019-04-07T14:10:58.303Z,97367.84
2019-04-07T14:16:26.916Z,97370.78
2019-04-07T14:21:50.461Z,97367.81
2019-04-07T14:27:04.383Z,97378.73
2019-04-07T14:32:27.481Z,97376.14
2019-04-07T14:37:44.792Z,97381.77
2019-04-07T14:42:57.193Z,97372.23
2019-04-07T14:48:11.594Z,97379.27
2019-04-07T14:53:36.604Z,97377.65
2019-04-07T14:58:51.105Z,97374.02
2019-04-07T15:03:55.699Z,97371.81
2019-04-07T15:09:10.194Z,97367.84
2019-04-07T15:14:15.648Z,97372.72
2019-04-07T15:19:21.170Z,97369.59
2019-04-07T15:24:27.095Z,97370.30
2019-04-07T15:29:34.305Z,97378.48
2019-04-07T15:34:42.492Z,97380.86
2019-04-07T15:39:50.590Z,97381.59
2019-04-07T15:44:56.094Z,97380.89
2019-04-07T15:50:01.510Z,97385.56
2019-04-07T15:55:08.368Z,97389.67
2019-04-07T16:00:15.355Z,97398.64
2019-04-07T16:05:21.509Z,97402.74
2019-04-07T16:10:35.999Z,97403.80
2019-04-07T16:15:45.326Z,97406.70
2019-04-07T16:20:51.781Z,97411.49
2019-04-07T16:25:58.355Z,97415.50
2019-04-07T16:31:06.519Z,97416.73
2019-04-07T16:36:13.204Z,97424.67
2019-04-07T16:41:18.573Z,97426.89
2019-04-07T16:46:25.019Z,97423.53
2019-04-07T16:51:33.637Z,97431.45
2019-04-07T16:56:38.016Z,97438.34
2019-04-07T17:01:43.572Z,97433.88
2019-04-07T17:06:59.529Z,97441.13
2019-04-07T17:11:56.750Z,97443.83
2019-04-07T17:17:02.001Z,97453.92
2019-04-07T17:22:07.370Z,97449.65
2019-04-07T17:27:13.365Z,97453.39
2019-04-07T17:32:18.858Z,97455.47
2019-04-07T17:37:28.178Z,97463.02
2019-04-07T17:42:32.286Z,97459.45
2019-04-07T17:48:03.716Z,97465.04
2019-04-07T17:53:29.758Z,97469.84
2019-04-07T17:58:59.940Z,97473.68
2019-04-07T18:04:43.910Z,97479.39
2019-04-07T18:10:17.581Z,97485.56
2019-04-07T18:15:41.757Z,97487.59
2019-04-07T18:21:11.726Z,97492.75
2019-04-07T18:26:25.151Z,97494.09
2019-04-07T18:31:43.615Z,97497.05
2019-04-07T18:37:07.173Z,97504.17
2019-04-07T18:42:22.978Z,97512.92
2019-04-07T18:47:48.315Z,97517.41
2019-04-07T18:53:14.701Z,97530.03
2019-04-07T18:58:31.258Z,97532.23
2019-04-07T19:03:56.050Z,97544.60
2019-04-07T19:09:18.900Z,97544.23
2019-04-07T19:14:44.563Z,97547.23
2019-04-07T19:20:05.318Z,97552.75
2019-04-07T19:25:35.532Z,97559.11
2019-04-07T19:31:06.647Z,97555.50
2019-04-07T19:36:29.369Z,97563.14
2019-04-07T19:41:46.913Z,97563.20
2019-04-07T19:47:02.132Z,97560.98
2019-04-07T19:52:41.556Z,97567.17
2019-04-07T19:57:59.996Z,97564.39
2019-04-07T20:03:28.389Z,97564.29
2019-04-07T20:08:44.215Z,97564.19
2019-04-07T20:14:13.694Z,97564.13
2019-04-07T20:19:45.600Z,97570.59
2019-04-07T20:25:13.278Z,97573.80
2019-04-07T20:30:31.791Z,97570.14
2019-04-07T20:35:55.549Z,97573.85
2019-04-07T20:41:20.248Z,97576.44
2019-04-07T20:46:57.040Z,97573.27
2019-04-07T20:52:20.079Z,97574.66
2019-04-07T20:57:43.267Z,97575.19
2019-04-07T21:03:18.158Z,97573.61
2019-04-07T21:08:41.647Z,97574.80
2019-04-07T21:14:09.325Z,97577.70
2019-04-07T21:19:51.926Z,97583.97
2019-04-07T21:25:25.093Z,97587.67
2019-04-07T21:30:46.804Z,97588.33
2019-04-07T21:36:20.574Z,97585.69
2019-04-07T21:41:54.896Z,97589.22
2019-04-07T21:47:38.546Z,97580.31
2019-04-07T21:53:10.149Z,97580.31
2019-04-07T21:58:40.486Z,97586.70
2019-04-07T22:04:11.523Z,97584.91
2019-04-07T22:09:21.291Z,97591.95
2019-04-07T22:14:27.058Z,97595.20
2019-04-07T22:19:33.957Z,97594.34
2019-04-07T22:24:40.648Z,97588.52
2019-04-07T22:29:47.105Z,97594.71
2019-04-07T22:34:54.690Z,97597.03
2019-04-07T22:40:02.131Z,97597.27
2019-04-07T22:45:08.198Z,97599.30
2019-04-07T22:50:14.988Z,97605.23
2019-04-07T22:55:27.033Z,97603.96
2019-04-07T23:00:32.553Z,97603.80
2019-04-07T23:05:37.879Z,97612.34
2019-04-07T23:10:44.279Z,97609.72
2019-04-07T23:15:50.776Z,97606.91
2019-04-07T23:20:56.083Z,97615.47
2019-04-07T23:26:02.055Z,97611.18
2019-04-07T23:31:07.881Z,97610.28
2019-04-07T23:36:13.727Z,97616.98
2019-04-07T23:41:18.976Z,97612.54
2019-04-07T23:46:27.151Z,97615.58
2019-04-07T23:51:32.253Z,97614.94
2019-04-07T23:56:38.044Z,97617.30
